createdAt,value
2022-08-17T00:00:07.346Z,8.90
2022-08-17T00:02:59.011Z,10.20
2022-08-17T00:05:26.324Z,9.70
2022-08-17T00:07:53.055Z,9.20
2022-08-17T00:10:20.403Z,10.40
2022-08-17T00:12:47.240Z,10.20
2022-08-17T00:15:15.128Z,9.80
2022-08-17T00:17:45.551Z,8.70
2022-08-17T00:20:13.407Z,9.00
2022-08-17T00:22:41.801Z,9.20
2022-08-17T00:25:13.037Z,10.60
2022-08-17T00:27:40.400Z,11.10
2022-08-17T00:30:10.653Z,10.30
2022-08-17T00:33:14.350Z,10.50
2022-08-17T00:35:31.241Z,10.10
2022-08-17T00:37:58.574Z,9.90
2022-08-17T00:40:25.374Z,9.10
2022-08-17T00:42:53.363Z,9.00
2022-08-17T00:45:20.953Z,9.50
2022-08-17T00:47:47.794Z,9.70
2022-08-17T00:50:18.167Z,9.50
2022-08-17T00:52:52.569Z,10.70
2022-08-17T00:55:21.053Z,10.50
2022-08-17T00:57:55.207Z,9.20
2022-08-17T01:00:29.174Z,11.60
2022-08-17T01:03:02.368Z,10.70
2022-08-17T01:05:31.713Z,10.70
2022-08-17T01:08:00.293Z,10.20
2022-08-17T01:10:58.797Z,9.30
2022-08-17T01:13:36.793Z,9.20
2022-08-17T01:16:28.337Z,12.20
2022-08-17T01:19:02.105Z,9.70
2022-08-17T01:21:47.545Z,9.90
2022-08-17T01:24:14.955Z,9.90
2022-08-17T01:26:44.956Z,10.00
2022-08-17T01:29:12.959Z,9.20
2022-08-17T01:31:45.216Z,11.50
2022-08-17T01:34:14.725Z,10.30
2022-08-17T01:36:46.056Z,9.60
2022-08-17T01:39:23.554Z,11.90
2022-08-17T01:41:53.653Z,9.60
2022-08-17T01:44:21.852Z,10.70
2022-08-17T01:46:48.831Z,9.80
2022-08-17T01:49:15.845Z,11.90
2022-08-17T01:51:42.898Z,10.00
2022-08-17T01:54:13.954Z,10.10
2022-08-17T01:56:44.519Z,10.30
2022-08-17T01:59:15.044Z,11.50
2022-08-17T02:01:43.531Z,12.00
2022-08-17T02:04:11.498Z,10.50
2022-08-17T02:06:44.903Z,10.60
2022-08-17T02:09:25.291Z,10.00
2022-08-17T02:11:57.112Z,10.40
2022-08-17T02:14:25.727Z,11.60
2022-08-17T02:16:53.445Z,10.70
2022-08-17T02:19:23.069Z,9.40
2022-08-17T02:21:51.845Z,9.60
2022-08-17T02:24:58.356Z,10.30
2022-08-17T02:27:15.055Z,9.80
2022-08-17T02:29:42.067Z,9.90
2022-08-17T02:32:20.926Z,10.40
2022-08-17T02:34:55.022Z,10.30
2022-08-17T02:37:22.531Z,10.30
2022-08-17T02:39:49.175Z,12.20
2022-08-17T02:42:16.105Z,10.80
2022-08-17T02:44:43.261Z,10.70
2022-08-17T02:47:11.148Z,10.40
2022-08-17T02:49:40.063Z,11.20
2022-08-17T02:52:08.166Z,10.90
2022-08-17T02:54:40.154Z,10.30
2022-08-17T02:57:10.581Z,12.00
2022-08-17T02:59:39.565Z,10.90
2022-08-17T03:02:08.706Z,11.00
2022-08-17T03:04:35.725Z,11.70
2022-08-17T03:07:04.248Z,16.30
2022-08-17T03:09:31.391Z,13.50
2022-08-17T03:12:06.386Z,12.20
2022-08-17T03:14:35.995Z,11.80
2022-08-17T03:17:05.706Z,12.60
2022-08-17T03:19:32.703Z,12.50
2022-08-17T03:21:59.680Z,11.80
2022-08-17T03:24:46.582Z,11.50
2022-08-17T03:27:16.804Z,12.20
2022-08-17T03:29:43.862Z,10.90
2022-08-17T03:32:15.825Z,10.60
2022-08-17T03:34:43.109Z,11.50
2022-08-17T03:37:10.119Z,10.70
2022-08-17T03:39:37.049Z,11.50
2022-08-17T03:42:09.047Z,11.90
2022-08-17T03:44:58.192Z,11.50
2022-08-17T03:47:43.943Z,12.90
2022-08-17T03:50:31.360Z,12.00
2022-08-17T03:53:17.579Z,13.10
2022-08-17T03:56:03.152Z,11.40
2022-08-17T03:58:30.193Z,12.40
2022-08-17T04:00:59.117Z,11.70
2022-08-17T04:03:26.090Z,12.20
2022-08-17T04:05:53.185Z,11.70
2022-08-17T04:08:20.896Z,12.10
2022-08-17T04:10:47.957Z,12.10
2022-08-17T04:13:15.060Z,13.40
2022-08-17T04:15:51.259Z,13.30
2022-08-17T04:18:18.557Z,13.00
2022-08-17T04:20:46.940Z,12.60
2022-08-17T04:23:17.057Z,11.80
2022-08-17T04:25:48.223Z,11.40
2022-08-17T04:28:16.633Z,13.10
2022-08-17T04:30:45.090Z,14.30
2022-08-17T04:33:15.581Z,19.40
2022-08-17T04:35:52.068Z,15.50
2022-08-17T04:38:21.872Z,14.20
2022-08-17T04:41:07.944Z,14.20
2022-08-17T04:43:36.145Z,11.90
2022-08-17T04:46:08.465Z,15.60
2022-08-17T04:48:42.623Z,22.80
2022-08-17T04:51:15.752Z,14.80
2022-08-17T04:53:45.505Z,19.10
2022-08-17T04:56:21.841Z,12.30
2022-08-17T04:58:50.825Z,19.80
2022-08-17T05:01:23.062Z,12.00
2022-08-17T05:03:50.324Z,11.70
2022-08-17T05:06:17.718Z,11.40
2022-08-17T05:08:44.981Z,10.60
2022-08-17T05:11:12.495Z,12.40
2022-08-17T05:13:39.222Z,11.20
2022-08-17T05:16:09.164Z,10.50
2022-08-17T05:18:37.249Z,12.10
2022-08-17T05:21:06.509Z,13.00
2022-08-17T05:23:42.240Z,11.30
2022-08-17T05:26:19.883Z,11.70
2022-08-17T05:28:52.680Z,12.00
2022-08-17T05:31:21.594Z,11.20
2022-08-17T05:33:49.529Z,10.70
2022-08-17T05:36:42.199Z,11.50
2022-08-17T05:39:04.554Z,12.90
2022-08-17T05:41:31.458Z,11.00
2022-08-17T05:43:58.558Z,12.10
2022-08-17T05:46:28.738Z,11.60
2022-08-17T05:49:10.959Z,12.80
2022-08-17T05:51:53.152Z,11.50
2022-08-17T05:54:50.815Z,11.10
2022-08-17T05:57:36.134Z,12.00
2022-08-17T06:00:15.763Z,13.00
2022-08-17T06:03:07.514Z,10.20
2022-08-17T06:05:58.399Z,13.00
2022-08-17T06:08:45.583Z,10.80
2022-08-17T06:11:37.300Z,10.90
2022-08-17T06:14:22.155Z,10.70
2022-08-17T06:16:55.470Z,11.60
2022-08-17T06:19:47.757Z,12.60
2022-08-17T06:22:19.239Z,11.10
2022-08-17T06:24:57.984Z,11.20
2022-08-17T06:27:48.718Z,10.30
2022-08-17T06:30:58.427Z,9.50
2022-08-17T06:33:34.989Z,10.40
2022-08-17T06:36:10.984Z,10.70
2022-08-17T06:38:55.678Z,14.70
2022-08-17T06:41:50.571Z,15.50
2022-08-17T06:44:49.660Z,13.40
2022-08-17T06:47:29.370Z,34.30
2022-08-17T06:50:03.508Z,16.40
2022-08-17T06:52:47.300Z,12.40
2022-08-17T06:55:26.400Z,12.70
2022-08-17T06:57:59.919Z,11.10
2022-08-17T07:00:33.641Z,113.40
2022-08-17T07:03:10.451Z,74.10
2022-08-17T07:05:53.767Z,71.50
2022-08-17T07:09:01.249Z,8.50
2022-08-17T07:11:38.090Z,10.50
2022-08-17T07:14:35.526Z,10.40
2022-08-17T07:17:09.054Z,9.00
2022-08-17T07:19:40.602Z,9.00
2022-08-17T07:22:57.620Z,11.40
2022-08-17T07:25:28.047Z,10.40
2022-08-17T07:27:59.749Z,10.10
2022-08-17T07:30:51.312Z,8.60
2022-08-17T07:33:28.208Z,8.30
2022-08-17T07:35:59.383Z,8.70
2022-08-17T07:38:28.631Z,8.80
2022-08-17T07:41:02.222Z,9.20
2022-08-17T07:43:41.614Z,9.20
2022-08-17T07:49:11.147Z,11.80
2022-08-17T07:51:45.562Z,13.20
2022-08-17T07:54:15.511Z,10.90
2022-08-17T07:56:47.314Z,10.30
2022-08-17T07:59:27.160Z,11.30
2022-08-17T08:01:58.354Z,13.80
2022-08-17T08:04:49.938Z,11.40
2022-08-17T08:07:27.321Z,10.90
2022-08-17T08:10:14.048Z,12.80
2022-08-17T08:13:12.247Z,10.60
2022-08-17T08:15:53.569Z,10.40
2022-08-17T08:18:38.678Z,9.80
2022-08-17T08:21:35.909Z,10.10
2022-08-17T08:24:40.524Z,10.90
2022-08-17T08:27:34.038Z,10.70
2022-08-17T08:30:07.365Z,9.10
2022-08-17T08:32:59.255Z,9.50
2022-08-17T08:35:54.315Z,10.40
2022-08-17T08:38:56.719Z,10.50
2022-08-17T08:41:51.472Z,9.00
2022-08-17T08:45:03.953Z,9.30
2022-08-17T08:47:45.080Z,8.50
2022-08-17T08:50:37.745Z,10.00
2022-08-17T08:53:24.409Z,8.20
2022-08-17T08:56:23.414Z,11.30
2022-08-17T08:59:02.296Z,9.20
2022-08-17T09:01:55.057Z,8.10
2022-08-17T09:05:02.764Z,8.40
2022-08-17T09:07:36.736Z,8.50
2022-08-17T09:10:13.810Z,7.40
2022-08-17T09:12:53.719Z,9.00
2022-08-17T09:15:27.413Z,7.70
2022-08-17T09:18:59.955Z,8.70
2022-08-17T09:21:21.582Z,6.40
2022-08-17T09:24:00.090Z,9.30
2022-08-17T09:26:35.102Z,7.00
2022-08-17T09:29:08.640Z,9.30
2022-08-17T09:31:48.783Z,9.10
2022-08-17T09:34:21.170Z,7.50
2022-08-17T09:36:58.777Z,8.30
2022-08-17T09:39:39.071Z,6.80
2022-08-17T09:42:14.897Z,6.20
2022-08-17T09:44:51.868Z,7.30
2022-08-17T09:47:45.931Z,7.90
2022-08-17T09:50:20.163Z,7.70
2022-08-17T09:53:08.254Z,4.40
2022-08-17T09:56:09.100Z,3.60
2022-08-17T09:58:56.310Z,3.50
2022-08-17T10:01:39.780Z,5.50
2022-08-17T10:04:20.413Z,4.60
2022-08-17T10:07:12.263Z,2.80
2022-08-17T10:09:45.092Z,3.70
2022-08-17T10:12:38.333Z,6.60
2022-08-17T10:15:22.678Z,4.20
2022-08-17T10:18:07.609Z,4.20
2022-08-17T10:20:46.569Z,4.60
2022-08-17T10:23:46.711Z,3.70
2022-08-17T10:26:19.284Z,4.00
2022-08-17T10:28:52.649Z,4.90
2022-08-17T10:31:34.866Z,4.70
2022-08-17T10:34:29.429Z,3.40
2022-08-17T10:37:19.627Z,3.00
2022-08-17T10:40:09.992Z,3.80
2022-08-17T10:42:51.884Z,3.40
2022-08-17T10:45:40.394Z,3.30
2022-08-17T10:48:07.593Z,4.00
2022-08-17T10:50:55.479Z,4.70
2022-08-17T10:53:40.948Z,3.50
2022-08-17T10:56:17.764Z,3.50
2022-08-17T10:58:53.983Z,2.90
2022-08-17T11:01:33.326Z,4.50
2022-08-17T11:04:06.028Z,4.20
2022-08-17T11:07:02.195Z,3.40
2022-08-17T11:10:16.623Z,3.70
2022-08-17T11:12:57.351Z,5.80
2022-08-17T11:15:39.516Z,2.80
2022-08-17T11:18:44.319Z,7.00
2022-08-17T11:21:29.948Z,4.20
2022-08-17T11:24:06.071Z,4.40
2022-08-17T11:26:36.099Z,3.20
2022-08-17T11:29:09.579Z,4.80
2022-08-17T11:31:39.899Z,3.30
2022-08-17T11:34:13.506Z,4.60
2022-08-17T11:36:51.933Z,4.40
2022-08-17T11:39:44.508Z,3.70
2022-08-17T11:42:48.992Z,3.20
2022-08-17T11:45:38.584Z,4.90
2022-08-17T11:48:46.370Z,5.10
2022-08-17T11:51:46.386Z,4.90
2022-08-17T11:54:33.205Z,4.30
2022-08-17T11:57:21.643Z,3.00
2022-08-17T12:00:02.044Z,5.20
2022-08-17T12:02:31.427Z,3.00
2022-08-17T12:05:04.719Z,6.40
2022-08-17T12:07:49.097Z,3.30
2022-08-17T12:10:22.734Z,3.30
2022-08-17T12:12:54.045Z,4.90
2022-08-17T12:15:35.432Z,3.70
2022-08-17T12:18:02.381Z,2.80
2022-08-17T12:20:28.954Z,2.70
2022-08-17T12:23:34.094Z,4.80
2022-08-17T12:26:11.856Z,4.80
2022-08-17T12:28:44.229Z,4.60
2022-08-17T12:31:20.835Z,3.10
2022-08-17T12:33:49.922Z,3.80
2022-08-17T12:36:22.242Z,4.30
2022-08-17T12:38:57.225Z,4.90
2022-08-17T12:41:39.104Z,3.50
2022-08-17T12:44:09.521Z,3.60
2022-08-17T12:46:50.463Z,5.30
2022-08-17T12:49:23.036Z,3.30
2022-08-17T12:51:51.853Z,3.20
2022-08-17T12:54:50.378Z,4.00
2022-08-17T12:57:34.582Z,4.20
2022-08-17T13:00:20.686Z,4.10
2022-08-17T13:02:54.703Z,4.20
2022-08-17T13:05:27.651Z,4.00
2022-08-17T13:07:59.222Z,4.10
2022-08-17T13:10:34.967Z,4.00
2022-08-17T13:13:21.515Z,3.80
2022-08-17T13:15:55.283Z,4.20
2022-08-17T13:18:39.897Z,3.10
2022-08-17T13:21:18.935Z,4.40
2022-08-17T13:24:11.317Z,5.00
2022-08-17T13:26:54.506Z,3.30
2022-08-17T13:29:53.101Z,4.40
2022-08-17T13:32:31.017Z,5.70
2022-08-17T13:35:14.951Z,3.90
2022-08-17T13:37:57.818Z,4.50
2022-08-17T13:40:53.089Z,3.60
2022-08-17T13:43:49.816Z,3.90
2022-08-17T13:46:22.410Z,2.90
2022-08-17T13:49:21.011Z,4.30
2022-08-17T13:51:51.508Z,3.80
2022-08-17T13:54:30.245Z,3.50
2022-08-17T13:57:03.057Z,4.60
2022-08-17T13:59:53.678Z,5.60
2022-08-17T14:02:25.903Z,3.70
2022-08-17T14:04:55.594Z,3.80
2022-08-17T14:07:29.113Z,6.40
2022-08-17T14:10:01.086Z,4.40
2022-08-17T14:12:32.613Z,3.80
2022-08-17T14:14:59.825Z,3.20
2022-08-17T14:17:29.082Z,4.60
2022-08-17T14:19:55.896Z,4.60
2022-08-17T14:22:32.406Z,3.70
2022-08-17T14:25:01.788Z,4.40
2022-08-17T14:27:32.074Z,4.80
2022-08-17T14:29:59.272Z,4.60
2022-08-17T14:32:31.951Z,5.20
2022-08-17T14:34:59.941Z,4.80
2022-08-17T14:37:28.347Z,3.80
2022-08-17T14:39:57.073Z,5.80
2022-08-17T14:42:26.342Z,2.50
2022-08-17T14:44:55.522Z,3.40
2022-08-17T14:47:25.087Z,3.30
2022-08-17T14:49:53.032Z,2.90
2022-08-17T14:52:22.086Z,3.30
2022-08-17T14:54:53.316Z,2.20
2022-08-17T14:57:24.580Z,3.80
2022-08-17T14:59:55.437Z,7.50
2022-08-17T15:02:29.648Z,3.70
2022-08-17T15:05:04.336Z,4.80
2022-08-17T15:07:34.049Z,5.20
2022-08-17T15:10:02.142Z,3.30
2022-08-17T15:12:33.282Z,5.20
2022-08-17T15:15:05.395Z,4.50
2022-08-17T15:17:44.929Z,2.90
2022-08-17T15:20:20.865Z,5.60
2022-08-17T15:22:55.523Z,3.30
2022-08-17T15:25:24.212Z,4.50
2022-08-17T15:27:52.123Z,5.20
2022-08-17T15:30:19.892Z,4.40
2022-08-17T15:32:54.030Z,3.90
2022-08-17T15:35:27.338Z,4.70
2022-08-17T15:38:11.567Z,4.40
2022-08-17T15:40:43.117Z,4.60
2022-08-17T15:43:27.305Z,4.20
2022-08-17T15:46:22.484Z,4.00
2022-08-17T15:48:51.952Z,4.10
2022-08-17T15:51:26.322Z,3.70
2022-08-17T15:54:04.247Z,7.20
2022-08-17T15:56:47.463Z,4.80
2022-08-17T15:59:14.265Z,4.10
2022-08-17T16:03:12.972Z,5.50
2022-08-17T16:04:31.035Z,4.20
2022-08-17T16:06:59.819Z,4.20
2022-08-17T16:09:27.807Z,5.10
2022-08-17T16:11:56.062Z,4.00
2022-08-17T16:14:33.553Z,6.80
2022-08-17T16:17:03.044Z,3.30
2022-08-17T16:19:29.874Z,4.20
2022-08-17T16:21:56.932Z,9.00
2022-08-17T16:24:23.488Z,5.40
2022-08-17T16:26:50.278Z,2.90
2022-08-17T16:29:17.017Z,5.40
2022-08-17T16:31:43.687Z,2.60
2022-08-17T16:34:17.766Z,4.00
2022-08-17T16:36:55.221Z,3.80
2022-08-17T16:39:28.973Z,4.40
2022-08-17T16:41:56.174Z,3.70
2022-08-17T16:44:23.971Z,3.90
2022-08-17T16:46:50.749Z,4.90
2022-08-17T16:49:25.765Z,4.30
2022-08-17T16:52:06.074Z,8.70
2022-08-17T16:54:35.268Z,7.30
2022-08-17T16:57:04.878Z,5.30
2022-08-17T16:59:41.018Z,5.60
2022-08-17T17:02:17.294Z,5.80
2022-08-17T17:04:57.671Z,5.90
2022-08-17T17:07:36.719Z,2.90
2022-08-17T17:10:12.695Z,3.20
2022-08-17T17:13:03.660Z,2.70
2022-08-17T17:15:37.202Z,4.20
2022-08-17T17:18:07.235Z,3.60
2022-08-17T17:20:47.737Z,2.80
2022-08-17T17:23:41.140Z,5.70
2022-08-17T17:26:28.875Z,4.70
2022-08-17T17:29:14.677Z,3.10
2022-08-17T17:32:10.020Z,5.00
2022-08-17T17:34:39.720Z,2.60
2022-08-17T17:37:11.923Z,3.80
2022-08-17T17:39:46.470Z,3.20
2022-08-17T17:42:20.575Z,3.70
2022-08-17T17:45:06.787Z,5.00
2022-08-17T17:47:34.390Z,4.10
2022-08-17T17:50:02.588Z,4.60
2022-08-17T17:53:02.206Z,3.70
2022-08-17T17:55:55.228Z,5.70
2022-08-17T17:58:29.699Z,4.50
2022-08-17T18:01:17.283Z,3.20
2022-08-17T18:04:02.851Z,5.50
2022-08-17T18:06:46.915Z,4.40
2022-08-17T18:09:39.721Z,4.10
2022-08-17T18:12:29.330Z,7.00
2022-08-17T18:15:18.619Z,4.80
2022-08-17T18:18:37.766Z,6.60
2022-08-17T18:21:16.849Z,5.00
2022-08-17T18:24:04.952Z,3.80
2022-08-17T18:26:43.797Z,4.70
2022-08-17T18:29:37.508Z,6.50
2022-08-17T18:32:14.284Z,6.60
2022-08-17T18:34:49.701Z,26.60
2022-08-17T18:37:45.850Z,6.10
2022-08-17T18:40:22.080Z,6.50
2022-08-17T18:42:48.942Z,5.30
2022-08-17T18:45:30.710Z,4.00
2022-08-17T18:47:57.582Z,6.00
2022-08-17T18:50:41.227Z,5.00
2022-08-17T18:53:33.520Z,5.50
2022-08-17T18:56:23.088Z,4.10
2022-08-17T18:59:19.852Z,4.20
2022-08-17T19:05:26.499Z,6.80
2022-08-17T19:08:07.326Z,5.70
2022-08-17T19:10:46.478Z,4.20
2022-08-17T19:13:23.965Z,5.20
2022-08-17T19:16:18.840Z,6.10
2022-08-17T19:18:57.974Z,4.40
2022-08-17T19:21:33.592Z,6.40
2022-08-17T19:24:13.907Z,5.30
2022-08-17T19:26:54.159Z,4.50
2022-08-17T19:29:34.216Z,5.20
2022-08-17T19:32:01.733Z,5.70
2022-08-17T19:34:34.555Z,5.80
2022-08-17T19:37:21.132Z,5.30
2022-08-17T19:40:08.620Z,5.80
2022-08-17T19:42:50.341Z,7.50
2022-08-17T19:45:45.157Z,5.70
2022-08-17T19:48:38.120Z,5.60
2022-08-17T19:51:34.290Z,4.70
2022-08-17T19:54:06.423Z,5.80
2022-08-17T19:57:05.616Z,4.70
2022-08-17T19:59:53.854Z,6.40
2022-08-17T20:02:39.037Z,5.10
2022-08-17T20:05:15.312Z,6.50
2022-08-17T20:07:57.294Z,4.70
2022-08-17T20:10:35.301Z,6.30
2022-08-17T20:13:08.999Z,7.30
2022-08-17T20:15:40.520Z,5.30
2022-08-17T20:18:18.376Z,6.10
2022-08-17T20:20:50.990Z,6.00
2022-08-17T20:23:45.472Z,6.50
2022-08-17T20:26:44.422Z,5.20
2022-08-17T20:30:01.726Z,5.70
2022-08-17T20:32:33.710Z,6.80
2022-08-17T20:35:21.342Z,6.10
2022-08-17T20:38:02.681Z,5.70
2022-08-17T20:40:54.462Z,6.00
2022-08-17T20:43:43.611Z,4.70
2022-08-17T20:46:32.067Z,6.20
2022-08-17T20:49:17.673Z,6.00
2022-08-17T20:52:02.864Z,5.70
2022-08-17T20:54:41.945Z,5.40
2022-08-17T20:57:13.756Z,5.90
2022-08-17T20:59:44.158Z,5.10
2022-08-17T21:02:20.667Z,7.10
2022-08-17T21:04:50.730Z,5.40
2022-08-17T21:07:53.663Z,8.20
2022-08-17T21:10:26.332Z,6.30
2022-08-17T21:13:02.028Z,5.30
2022-08-17T21:16:00.044Z,5.90
2022-08-17T21:19:04.872Z,6.40
2022-08-17T21:21:59.522Z,6.40
2022-08-17T21:24:38.428Z,7.20
2022-08-17T21:27:05.814Z,6.40
2022-08-17T21:29:34.010Z,6.10
2022-08-17T21:32:05.490Z,6.60
2022-08-17T21:34:44.246Z,6.70
2022-08-17T21:37:20.244Z,6.90
2022-08-17T21:39:55.755Z,6.10
2022-08-17T21:42:26.631Z,6.80
2022-08-17T21:44:58.021Z,6.10
2022-08-17T21:47:28.080Z,7.40
2022-08-17T21:49:56.514Z,7.00
2022-08-17T21:52:27.092Z,6.60
2022-08-17T21:54:58.406Z,7.80
2022-08-17T21:57:28.372Z,6.60
2022-08-17T21:59:58.638Z,8.70
2022-08-17T22:02:35.225Z,7.10
2022-08-17T22:05:03.022Z,6.90
2022-08-17T22:07:40.159Z,9.20
2022-08-17T22:10:26.580Z,6.60
2022-08-17T22:13:16.735Z,8.00
2022-08-17T22:15:47.622Z,8.00
2022-08-17T22:18:26.859Z,7.80
2022-08-17T22:20:57.150Z,6.40
2022-08-17T22:23:49.852Z,8.30
2022-08-17T22:26:18.565Z,6.60
2022-08-17T22:28:50.809Z,6.50
2022-08-17T22:31:20.834Z,7.30
2022-08-17T22:34:04.475Z,6.20
2022-08-17T22:36:33.657Z,6.80
2022-08-17T22:39:04.693Z,7.60
2022-08-17T22:41:41.202Z,7.50
2022-08-17T22:44:23.648Z,8.10
2022-08-17T22:46:55.617Z,8.40
2022-08-17T22:49:29.240Z,7.00
2022-08-17T22:52:10.016Z,6.80
2022-08-17T22:54:55.205Z,7.50
2022-08-17T22:57:42.120Z,10.00
2022-08-17T23:00:39.468Z,10.10
2022-08-17T23:03:27.033Z,8.50
2022-08-17T23:06:11.313Z,9.90
2022-08-17T23:08:50.152Z,8.90
2022-08-17T23:11:17.141Z,8.50
2022-08-17T23:13:44.371Z,8.70
2022-08-17T23:16:11.545Z,7.80
2022-08-17T23:18:38.915Z,8.90
2022-08-17T23:21:09.092Z,10.80
2022-08-17T23:23:40.462Z,8.80
2022-08-17T23:26:11.355Z,8.80
2022-08-17T23:28:40.963Z,10.20
2022-08-17T23:31:16.750Z,11.30
2022-08-17T23:33:43.690Z,9.50
2022-08-17T23:36:15.353Z,10.20
2022-08-17T23:38:46.653Z,9.50
2022-08-17T23:41:20.420Z,11.60
2022-08-17T23:43:50.570Z,9.90
2022-08-17T23:46:18.051Z,9.70
2022-08-17T23:48:44.803Z,9.70
2022-08-17T23:51:18.984Z,9.30
2022-08-17T23:53:50.088Z,9.70
2022-08-17T23:56:23.561Z,10.80
2022-08-17T23:58:50.390Z,9.60
